createdAt,value
2023-05-19T01:31:35.242Z,63.93
2023-05-19T01:34:04.284Z,63.75
2023-05-19T01:36:32.941Z,63.76
2023-05-19T01:39:02.201Z,63.81
2023-05-19T01:41:32.038Z,63.94
2023-05-19T01:43:59.436Z,63.97
2023-05-19T01:46:26.473Z,64.30
2023-05-19T01:48:54.639Z,64.16
2023-05-19T01:51:21.525Z,64.05
2023-05-19T01:53:48.516Z,64.03
2023-05-19T01:56:25.253Z,64.07
2023-05-19T01:59:02.566Z,64.37
2023-05-19T02:01:50.758Z,64.07
2023-05-19T02:04:40.395Z,64.20
2023-05-19T02:07:22.051Z,64.36
2023-05-19T02:10:03.479Z,64.20
2023-05-19T02:12:40.174Z,64.36
2023-05-19T02:15:14.008Z,64.38
2023-05-19T02:17:47.791Z,64.78
2023-05-19T02:20:15.739Z,64.67
2023-05-19T02:22:42.986Z,64.29
2023-05-19T02:25:10.963Z,64.32
2023-05-19T02:27:39.148Z,64.13
2023-05-19T02:30:08.372Z,64.05
2023-05-19T02:32:35.972Z,64.09
2023-05-19T02:35:03.612Z,64.02
2023-05-19T02:37:31.977Z,63.94
2023-05-19T02:39:58.897Z,64.12
2023-05-19T02:42:25.902Z,64.24
2023-05-19T02:44:55.119Z,64.27
2023-05-19T02:47:22.138Z,64.36
2023-05-19T02:49:49.120Z,63.90
2023-05-19T02:52:16.112Z,64.16
2023-05-19T02:54:43.027Z,63.81
2023-05-19T02:57:10.659Z,64.02
2023-05-19T02:59:37.671Z,63.85
2023-05-19T03:02:04.699Z,63.99
2023-05-19T03:04:31.720Z,63.96
2023-05-19T03:06:58.717Z,63.97
2023-05-19T03:09:25.822Z,63.85
2023-05-19T03:11:52.863Z,63.95
2023-05-19T03:14:23.278Z,64.03
2023-05-19T03:16:50.578Z,63.83
2023-05-19T03:19:17.910Z,64.04
2023-05-19T03:21:45.152Z,63.98
2023-05-19T03:24:12.252Z,63.79
2023-05-19T03:26:39.339Z,64.23
2023-05-19T03:29:06.340Z,64.13
2023-05-19T03:31:33.374Z,63.93
2023-05-19T03:34:00.509Z,64.17
2023-05-19T03:36:31.556Z,64.30
2023-05-19T03:38:58.827Z,64.26
2023-05-19T03:41:26.052Z,64.35
2023-05-19T03:43:53.037Z,64.75
2023-05-19T03:46:20.089Z,64.66
2023-05-19T03:48:47.207Z,64.73
2023-05-19T03:51:14.492Z,64.96
2023-05-19T03:53:41.580Z,64.98
2023-05-19T03:56:13.075Z,65.34
2023-05-19T03:58:44.021Z,65.32
2023-05-19T04:01:11.531Z,65.43
2023-05-19T04:03:58.545Z,65.51
2023-05-19T04:06:45.584Z,65.16
2023-05-19T04:09:15.294Z,65.21
2023-05-19T04:11:43.097Z,65.14
2023-05-19T04:14:11.914Z,65.29
2023-05-19T04:16:39.820Z,65.24
2023-05-19T04:19:07.047Z,65.45
2023-05-19T04:21:33.965Z,65.23
2023-05-19T04:24:01.319Z,65.64
2023-05-19T04:26:30.468Z,65.74
2023-05-19T04:28:57.425Z,65.89
2023-05-19T04:31:24.490Z,65.40
2023-05-19T04:33:52.991Z,64.94
2023-05-19T04:36:21.217Z,64.89
2023-05-19T04:38:48.372Z,64.63
2023-05-19T04:41:16.005Z,64.15
2023-05-19T04:43:44.215Z,63.38
2023-05-19T04:46:14.331Z,62.96
2023-05-19T04:48:41.440Z,62.72
2023-05-19T04:51:08.531Z,62.37
2023-05-19T04:53:36.065Z,62.15
2023-05-19T04:56:03.233Z,62.04
2023-05-19T04:58:30.147Z,61.72
2023-05-19T05:00:59.821Z,61.48
2023-05-19T05:03:26.951Z,61.33
2023-05-19T05:05:53.955Z,60.80
2023-05-19T05:08:23.910Z,60.57
2023-05-19T05:10:52.181Z,60.55
2023-05-19T05:13:22.404Z,60.59
2023-05-19T05:15:51.604Z,60.03
2023-05-19T05:18:18.823Z,59.48
2023-05-19T05:20:46.412Z,59.07
2023-05-19T05:23:21.961Z,59.13
2023-05-19T05:25:53.308Z,58.89
2023-05-19T05:28:27.638Z,58.76
2023-05-19T05:30:56.885Z,58.58
2023-05-19T05:33:24.459Z,57.80
2023-05-19T05:35:52.038Z,57.39
2023-05-19T05:38:19.338Z,56.92
2023-05-19T05:40:46.590Z,56.18
2023-05-19T05:43:13.937Z,54.89
2023-05-19T05:45:41.175Z,55.14
2023-05-19T05:48:09.026Z,54.93
2023-05-19T05:50:36.620Z,54.19
2023-05-19T05:53:06.839Z,53.93
2023-05-19T05:55:34.605Z,53.44
2023-05-19T05:58:01.945Z,52.98
2023-05-19T06:00:29.507Z,51.81
2023-05-19T06:03:11.798Z,52.38
2023-05-19T06:05:42.003Z,53.12
2023-05-19T06:08:10.456Z,52.80
2023-05-19T06:10:41.311Z,52.82
2023-05-19T06:13:12.275Z,51.75
2023-05-19T06:15:42.099Z,51.67
2023-05-19T06:18:36.301Z,51.43
2023-05-19T06:21:03.940Z,50.62
2023-05-19T06:23:31.311Z,50.49
2023-05-19T06:25:58.555Z,50.43
2023-05-19T06:28:25.766Z,50.10
2023-05-19T06:30:53.132Z,49.73
2023-05-19T06:33:20.554Z,49.39
2023-05-19T06:35:48.093Z,50.04
2023-05-19T06:38:15.543Z,50.17
2023-05-19T06:40:43.043Z,50.64
2023-05-19T06:43:10.497Z,50.96
2023-05-19T06:45:38.150Z,51.14
2023-05-19T06:48:05.862Z,51.10
2023-05-19T06:50:33.165Z,49.68
2023-05-19T06:53:01.288Z,48.73
2023-05-19T06:55:28.756Z,48.78
2023-05-19T06:57:56.410Z,48.50
2023-05-19T07:00:35.431Z,48.50
2023-05-19T07:03:02.952Z,48.45
2023-05-19T07:05:30.446Z,47.89
2023-05-19T07:07:57.499Z,47.43
2023-05-19T07:10:24.408Z,47.07
2023-05-19T07:12:51.415Z,47.73
2023-05-19T07:15:18.348Z,48.19
2023-05-19T07:17:45.510Z,47.73
2023-05-19T07:20:12.783Z,47.81
2023-05-19T07:22:39.958Z,47.94
2023-05-19T07:25:07.896Z,47.94
2023-05-19T07:27:35.429Z,47.88
2023-05-19T07:30:03.554Z,47.93
2023-05-19T07:32:30.726Z,48.13
2023-05-19T07:34:57.786Z,48.03
2023-05-19T07:37:25.835Z,47.80
2023-05-19T07:39:53.222Z,47.45
2023-05-19T07:42:20.246Z,46.98
2023-05-19T07:44:47.325Z,46.64
2023-05-19T07:47:14.338Z,45.57
2023-05-19T07:49:45.584Z,44.38
2023-05-19T07:52:13.310Z,45.47
2023-05-19T07:54:40.315Z,45.03
2023-05-19T07:57:08.860Z,44.66
2023-05-19T07:59:35.799Z,45.90
2023-05-19T08:02:02.954Z,45.40
2023-05-19T08:04:30.265Z,45.36
2023-05-19T08:06:57.346Z,46.29
2023-05-19T08:09:24.353Z,46.60
2023-05-19T08:11:51.370Z,46.16
2023-05-19T08:14:19.019Z,44.98
2023-05-19T08:16:46.109Z,45.08
2023-05-19T08:19:13.133Z,44.03
2023-05-19T08:21:41.754Z,44.03
2023-05-19T08:24:08.733Z,43.63
2023-05-19T08:26:37.587Z,44.41
2023-05-19T08:29:05.155Z,43.96
2023-05-19T08:31:32.214Z,44.40
2023-05-19T08:33:59.338Z,44.03
2023-05-19T08:36:27.196Z,43.44
2023-05-19T08:38:54.106Z,44.25
2023-05-19T08:41:22.699Z,43.86
2023-05-19T08:43:49.734Z,43.23
2023-05-19T08:46:16.934Z,43.73
2023-05-19T08:48:48.898Z,44.16
2023-05-19T08:51:34.692Z,44.62
2023-05-19T08:54:14.174Z,44.61
2023-05-19T08:56:47.406Z,43.79
2023-05-19T08:59:15.591Z,42.30
2023-05-19T09:01:45.536Z,42.41
2023-05-19T09:04:16.298Z,42.98
2023-05-19T09:06:44.608Z,42.21
2023-05-19T09:09:11.857Z,42.14
2023-05-19T09:12:59.950Z,42.41
2023-05-19T09:46:28.088Z,41.98
2023-05-19T09:49:15.120Z,40.79
2023-05-19T09:51:42.511Z,40.82
2023-05-19T09:54:20.590Z,40.53
2023-05-19T09:57:27.864Z,39.93
2023-05-19T10:00:00.170Z,39.27
2023-05-19T10:02:28.309Z,39.14
2023-05-19T10:04:55.959Z,38.66
2023-05-19T10:07:26.109Z,38.88
2023-05-19T10:09:55.424Z,38.67
2023-05-19T10:12:26.313Z,38.69
2023-05-19T10:14:54.589Z,39.08
2023-05-19T10:17:22.145Z,39.02
2023-05-19T10:19:52.290Z,39.61
2023-05-19T10:22:19.622Z,39.24
2023-05-19T10:24:46.783Z,38.73
2023-05-19T10:27:15.225Z,39.10
2023-05-19T10:29:48.090Z,38.65
2023-05-19T10:36:07.940Z,38.56
2023-05-19T10:38:39.737Z,38.33
2023-05-19T10:41:32.914Z,37.46
2023-05-19T10:44:15.872Z,38.01
2023-05-19T10:46:43.117Z,37.99
2023-05-19T10:49:10.232Z,38.55
2023-05-19T10:51:58.297Z,37.85
2023-05-19T10:58:44.811Z,38.64
2023-05-19T11:01:14.536Z,37.08
2023-05-19T11:03:49.615Z,36.79
2023-05-19T11:11:21.164Z,37.58
2023-05-19T11:13:51.146Z,37.18
2023-05-19T11:16:31.282Z,37.21
2023-05-19T11:22:49.998Z,37.22
2023-05-19T11:25:41.358Z,37.39
2023-05-19T11:28:11.900Z,37.47
2023-05-19T11:30:41.900Z,36.34
2023-05-19T11:33:09.792Z,35.62
2023-05-19T11:35:38.382Z,36.90
2023-05-19T11:38:15.926Z,36.86
2023-05-19T11:40:55.500Z,36.81
2023-05-19T11:43:24.248Z,36.86
2023-05-19T11:45:53.900Z,37.28
2023-05-19T11:48:22.108Z,37.10
2023-05-19T11:50:50.401Z,36.75
2023-05-19T11:53:18.993Z,37.16
2023-05-19T11:55:47.365Z,36.32
2023-05-19T11:58:15.316Z,36.85
2023-05-19T12:00:46.864Z,37.58
2023-05-19T12:06:21.015Z,36.69
2023-05-19T12:08:50.971Z,37.43
2023-05-19T12:11:20.075Z,37.97
2023-05-19T12:13:47.447Z,38.48
2023-05-19T12:16:14.457Z,38.01
2023-05-19T12:18:41.896Z,38.25
2023-05-19T12:21:08.948Z,38.36
2023-05-19T12:23:36.593Z,38.93
2023-05-19T12:26:03.938Z,39.41
2023-05-19T12:28:31.017Z,39.04
2023-05-19T12:30:58.284Z,39.22
2023-05-19T12:33:25.846Z,39.40
2023-05-19T12:35:54.002Z,39.95
2023-05-19T12:38:22.216Z,39.91
2023-05-19T12:40:49.662Z,40.02
2023-05-19T12:43:21.716Z,39.69
2023-05-19T12:45:49.618Z,40.30
2023-05-19T12:51:53.755Z,40.62
2023-05-19T12:54:21.699Z,40.51
2023-05-19T12:56:52.751Z,40.55
2023-05-19T12:59:37.341Z,40.86
2023-05-19T13:02:06.065Z,40.88
2023-05-19T13:04:33.159Z,41.27
2023-05-19T13:07:00.124Z,41.40
2023-05-19T13:09:38.373Z,41.51
2023-05-19T13:12:06.069Z,41.61
2023-05-19T13:14:33.026Z,41.92
2023-05-19T13:16:59.991Z,41.81
2023-05-19T13:19:27.277Z,41.60
2023-05-19T13:21:54.309Z,41.46
2023-05-19T13:24:21.282Z,41.57
2023-05-19T13:26:48.340Z,41.93
2023-05-19T13:29:15.359Z,42.24
2023-05-19T13:31:42.289Z,42.70
2023-05-19T13:34:09.228Z,43.15
2023-05-19T13:36:36.270Z,43.03
2023-05-19T13:39:03.526Z,42.89
2023-05-19T13:41:30.435Z,42.84
2023-05-19T13:43:59.051Z,42.69
2023-05-19T13:46:36.667Z,42.72
2023-05-19T13:49:11.538Z,42.54
2023-05-19T13:51:41.706Z,42.85
2023-05-19T13:54:08.590Z,42.86
2023-05-19T13:56:36.059Z,43.02
2023-05-19T13:59:03.512Z,43.21
2023-05-19T14:01:30.798Z,43.76
2023-05-19T14:03:58.046Z,44.22
2023-05-19T14:06:25.104Z,44.67
2023-05-19T14:08:52.059Z,45.05
2023-05-19T14:11:24.105Z,45.26
2023-05-19T14:21:15.146Z,45.74
2023-05-19T14:23:51.356Z,46.13
2023-05-19T14:26:45.743Z,45.81
2023-05-19T14:29:13.623Z,45.70
2023-05-19T14:31:40.965Z,45.90
2023-05-19T14:34:17.586Z,45.95
2023-05-19T14:37:31.353Z,46.40
2023-05-19T14:39:58.547Z,46.24
2023-05-19T14:42:26.451Z,46.34
2023-05-19T14:44:56.285Z,46.12
2023-05-19T14:47:26.250Z,46.43
2023-05-19T14:49:54.471Z,47.17
2023-05-19T15:28:08.478Z,47.23
2023-05-19T15:30:37.409Z,46.75
2023-05-19T15:33:16.800Z,46.82
2023-05-19T15:35:44.140Z,46.65
2023-05-19T15:41:21.384Z,46.79
2023-05-19T15:43:48.579Z,46.47
2023-05-19T15:46:15.682Z,46.83
2023-05-19T15:48:42.711Z,46.97
2023-05-19T15:51:12.261Z,47.03
2023-05-19T15:54:10.277Z,46.96
2023-05-19T15:56:55.844Z,46.87
2023-05-19T15:59:24.065Z,46.84
2023-05-19T16:01:52.994Z,46.74
2023-05-19T16:04:20.491Z,47.13
2023-05-19T16:06:56.342Z,47.45
2023-05-19T16:09:23.319Z,47.54
2023-05-19T16:11:50.786Z,47.67
2023-05-19T16:14:17.754Z,47.38
2023-05-19T16:16:44.930Z,47.16
2023-05-19T16:19:12.002Z,46.75
2023-05-19T16:21:38.970Z,46.76
2023-05-19T16:24:06.085Z,46.92
2023-05-19T16:26:42.682Z,46.59
2023-05-19T16:29:24.742Z,46.43
2023-05-19T16:31:51.856Z,46.50
2023-05-19T16:34:18.816Z,46.32
2023-05-19T16:36:45.799Z,46.02
2023-05-19T16:39:12.843Z,46.18
2023-05-19T16:41:39.740Z,46.25
2023-05-19T16:44:06.725Z,46.27
2023-05-19T16:46:33.820Z,46.29
2023-05-19T16:49:00.926Z,46.34
2023-05-19T16:51:27.937Z,46.58
2023-05-19T16:53:54.954Z,46.48
2023-05-19T16:56:21.890Z,46.30
2023-05-19T16:58:48.885Z,46.51
2023-05-19T17:01:16.870Z,46.95
2023-05-19T17:03:43.934Z,47.25
2023-05-19T17:06:10.853Z,47.21
2023-05-19T17:08:37.737Z,47.59
2023-05-19T17:11:06.031Z,47.79
2023-05-19T17:13:36.150Z,48.09
2023-05-19T17:16:03.204Z,48.40
2023-05-19T17:18:32.992Z,48.68
2023-05-19T17:21:03.030Z,48.93
2023-05-19T17:23:30.463Z,49.32
2023-05-19T17:25:57.935Z,49.60
2023-05-19T17:28:24.884Z,49.73
2023-05-19T17:30:51.917Z,49.83
2023-05-19T17:33:19.010Z,50.07
2023-05-19T17:35:46.163Z,50.26
2023-05-19T17:38:13.168Z,50.37
2023-05-19T17:40:41.983Z,50.78
2023-05-19T17:43:09.117Z,50.90
2023-05-19T17:45:36.086Z,51.07
2023-05-19T17:48:04.192Z,51.21
2023-05-19T17:50:34.473Z,51.30
2023-05-19T17:53:01.839Z,51.56
2023-05-19T17:55:30.472Z,51.98
2023-05-19T17:57:58.205Z,52.34
2023-05-19T18:00:25.716Z,52.47
2023-05-19T18:02:53.010Z,53.04
2023-05-19T18:05:20.477Z,53.19
2023-05-19T18:07:47.942Z,53.19
2023-05-19T18:10:16.315Z,53.59
2023-05-19T18:12:43.290Z,53.91
2023-05-19T18:15:11.055Z,53.90
2023-05-19T18:17:38.017Z,54.12
2023-05-19T18:20:06.187Z,54.23
2023-05-19T18:22:33.229Z,54.66
2023-05-19T18:25:00.483Z,54.77
2023-05-19T18:27:27.463Z,54.58
2023-05-19T18:29:54.435Z,54.52
2023-05-19T18:32:21.331Z,54.72
2023-05-19T18:34:48.198Z,54.84
2023-05-19T18:37:15.225Z,55.11
2023-05-19T18:39:42.167Z,54.99
2023-05-19T18:42:09.145Z,55.07
2023-05-19T18:44:36.121Z,55.00
2023-05-19T18:47:03.301Z,54.99
2023-05-19T18:49:30.359Z,54.90
2023-05-19T18:51:57.254Z,54.94
2023-05-19T18:54:24.332Z,54.77
2023-05-19T18:56:51.355Z,54.79
2023-05-19T18:59:18.456Z,54.86
2023-05-19T19:01:45.533Z,54.88
2023-05-19T19:04:14.260Z,54.85
2023-05-19T19:06:41.943Z,54.95
2023-05-19T19:09:08.995Z,55.19
2023-05-19T19:11:36.021Z,55.27
2023-05-19T19:14:02.968Z,55.43
2023-05-19T19:16:30.093Z,55.59
2023-05-19T19:18:57.200Z,55.71
2023-05-19T19:21:24.232Z,55.92
2023-05-19T19:23:54.340Z,56.19
2023-05-19T19:26:26.555Z,56.34
2023-05-19T19:28:53.956Z,56.49
2023-05-19T19:31:21.406Z,56.62
2023-05-19T19:33:48.713Z,56.88
2023-05-19T19:36:15.586Z,57.06
2023-05-19T19:38:42.536Z,57.19
2023-05-19T19:41:10.549Z,57.54
2023-05-19T19:43:37.522Z,57.90
2023-05-19T19:46:06.525Z,58.20
2023-05-19T19:48:33.521Z,58.23
2023-05-19T19:51:16.889Z,58.56
2023-05-19T19:53:44.154Z,58.74
2023-05-19T19:56:11.816Z,59.34
2023-05-19T19:58:38.797Z,59.40
2023-05-19T20:01:07.387Z,59.47
2023-05-19T20:03:35.063Z,59.38
2023-05-19T20:06:02.555Z,59.49
2023-05-19T20:08:29.794Z,59.81
2023-05-19T20:10:56.879Z,59.69
2023-05-19T20:13:24.146Z,59.83
2023-05-19T20:15:51.205Z,59.81
2023-05-19T20:18:18.252Z,59.88
2023-05-19T20:20:45.350Z,59.67
2023-05-19T20:23:12.851Z,59.75
2023-05-19T20:26:11.915Z,59.70
2023-05-19T20:28:43.164Z,59.61
2023-05-19T20:31:22.148Z,59.53
2023-05-19T20:36:36.729Z,59.37
2023-05-19T20:39:09.274Z,59.41
2023-05-19T20:41:36.608Z,59.62
2023-05-19T20:44:04.254Z,59.62
2023-05-19T20:46:38.126Z,59.62
2023-05-19T20:52:27.911Z,59.79
2023-05-19T20:54:59.730Z,59.77
2023-05-19T21:05:34.412Z,59.97
2023-05-19T21:08:15.223Z,59.83
2023-05-19T21:11:15.750Z,59.94
2023-05-19T21:13:43.614Z,59.90
2023-05-19T21:16:10.697Z,59.76
2023-05-19T21:18:51.982Z,59.89
2023-05-19T21:21:19.434Z,59.79
2023-05-19T21:23:46.577Z,59.70
2023-05-19T21:26:15.192Z,60.11
2023-05-19T21:29:00.016Z,59.97
2023-05-19T21:31:45.651Z,59.94
2023-05-19T21:34:50.719Z,60.13
2023-05-19T21:37:21.246Z,60.17
2023-05-19T21:39:51.346Z,60.27
2023-05-19T21:42:20.475Z,60.30
2023-05-19T21:44:47.752Z,60.29
2023-05-19T21:47:29.262Z,60.29
2023-05-19T21:49:58.489Z,60.44
2023-05-19T21:52:25.761Z,60.40
2023-05-19T21:54:54.339Z,60.31
2023-05-19T21:57:21.573Z,60.64
2023-05-19T21:59:48.895Z,60.45
2023-05-19T22:09:51.118Z,60.75
2023-05-19T22:12:26.565Z,61.07
2023-05-19T22:14:53.583Z,61.01
2023-05-19T22:17:20.790Z,61.06
2023-05-19T22:19:47.808Z,61.04
2023-05-19T22:22:14.938Z,61.08
2023-05-19T22:24:42.175Z,61.16
2023-05-19T22:27:09.592Z,61.62
2023-05-19T22:29:38.160Z,61.62
2023-05-19T22:32:07.176Z,61.47
2023-05-19T22:34:34.299Z,62.01
2023-05-19T22:37:01.472Z,62.05
2023-05-19T22:39:28.727Z,62.34
2023-05-19T22:41:56.254Z,62.53
2023-05-19T22:44:26.812Z,62.51
2023-05-19T22:46:58.968Z,62.80
2023-05-19T22:49:56.929Z,62.91
2023-05-19T22:56:18.043Z,63.07
2023-05-19T22:58:50.265Z,63.34
2023-05-19T23:01:28.727Z,63.76
2023-05-19T23:03:57.966Z,63.68
2023-05-19T23:06:25.249Z,63.80
2023-05-19T23:09:01.087Z,63.75
2023-05-19T23:11:28.990Z,63.66
2023-05-19T23:14:04.276Z,64.00
2023-05-19T23:16:32.657Z,64.10
2023-05-19T23:18:59.617Z,64.18
2023-05-19T23:40:16.884Z,65.28
2023-05-19T23:43:15.920Z,65.55
2023-05-19T23:45:56.837Z,65.66
2023-05-19T23:48:28.116Z,65.81
2023-05-19T23:51:15.315Z,65.78
2023-05-19T23:53:47.451Z,65.67
2023-05-19T23:59:36.531Z,65.66
